sensor_id;sensor_type;location;lat;lon;timestamp;P1;durP1;ratioP1;P2;durP2;ratioP2
3217;SDS011;1621;49.702;8.618;2024-02-26T00:00:42;2.83;;;1.33;;
3217;SDS011;1621;49.702;8.618;2024-02-26T00:03:09;2.27;;;1.00;;
3217;SDS011;1621;49.702;8.618;2024-02-26T00:05:36;2.00;;;1.00;;
3217;SDS011;1621;49.702;8.618;2024-02-26T00:08:04;2.40;;;1.03;;
3217;SDS011;1621;49.702;8.618;2024-02-26T00:10:30;2.00;;;1.00;;
3217;SDS011;1621;49.702;8.618;2024-02-26T00:12:56;2.90;;;1.20;;
3217;SDS011;1621;49.702;8.618;2024-02-26T00:15:23;3.60;;;1.03;;
3217;SDS011;1621;49.702;8.618;2024-02-26T00:17:49;2.37;;;1.10;;
3217;SDS011;1621;49.702;8.618;2024-02-26T00:20:17;2.70;;;1.30;;
3217;SDS011;1621;49.702;8.618;2024-02-26T00:22:43;2.43;;;1.10;;
3217;SDS011;1621;49.702;8.618;2024-02-26T00:25:09;2.60;;;1.30;;
3217;SDS011;1621;49.702;8.618;2024-02-26T00:27:37;2.30;;;1.20;;
3217;SDS011;1621;49.702;8.618;2024-02-26T00:30:04;2.60;;;1.20;;
3217;SDS011;1621;49.702;8.618;2024-02-26T00:32:31;3.10;;;1.20;;
3217;SDS011;1621;49.702;8.618;2024-02-26T00:34:57;2.30;;;1.10;;
3217;SDS011;1621;49.702;8.618;2024-02-26T00:37:25;3.23;;;1.40;;
3217;SDS011;1621;49.702;8.618;2024-02-26T00:39:51;2.13;;;1.07;;
3217;SDS011;1621;49.702;8.618;2024-02-26T00:42:19;2.43;;;1.20;;
3217;SDS011;1621;49.702;8.618;2024-02-26T00:44:45;2.10;;;1.03;;
3217;SDS011;1621;49.702;8.618;2024-02-26T00:47:11;3.10;;;1.30;;
3217;SDS011;1621;49.702;8.618;2024-02-26T00:49:37;2.13;;;1.10;;
3217;SDS011;1621;49.702;8.618;2024-02-26T00:52:04;2.80;;;1.30;;
3217;SDS011;1621;49.702;8.618;2024-02-26T00:54:32;2.97;;;1.27;;
3217;SDS011;1621;49.702;8.618;2024-02-26T00:56:58;2.57;;;1.13;;
3217;SDS011;1621;49.702;8.618;2024-02-26T00:59:24;2.57;;;1.07;;
3217;SDS011;1621;49.702;8.618;2024-02-26T01:01:50;3.20;;;1.50;;
3217;SDS011;1621;49.702;8.618;2024-02-26T01:04:17;2.73;;;1.27;;
3217;SDS011;1621;49.702;8.618;2024-02-26T01:06:43;2.60;;;1.40;;
3217;SDS011;1621;49.702;8.618;2024-02-26T01:09:08;3.27;;;1.30;;
3217;SDS011;1621;49.702;8.618;2024-02-26T01:11:36;3.50;;;1.27;;
3217;SDS011;1621;49.702;8.618;2024-02-26T01:14:02;2.30;;;1.07;;
3217;SDS011;1621;49.702;8.618;2024-02-26T01:16:28;2.67;;;1.40;;
3217;SDS011;1621;49.702;8.618;2024-02-26T01:18:56;2.30;;;1.20;;
3217;SDS011;1621;49.702;8.618;2024-02-26T01:21:22;3.00;;;1.33;;
3217;SDS011;1621;49.702;8.618;2024-02-26T01:23:48;2.83;;;1.40;;
3217;SDS011;1621;49.702;8.618;2024-02-26T01:26:14;2.20;;;1.00;;
3217;SDS011;1621;49.702;8.618;2024-02-26T01:28:42;2.93;;;1.40;;
3217;SDS011;1621;49.702;8.618;2024-02-26T01:31:09;5.47;;;1.37;;
3217;SDS011;1621;49.702;8.618;2024-02-26T01:33:35;2.97;;;1.40;;
3217;SDS011;1621;49.702;8.618;2024-02-26T01:36:02;2.87;;;1.40;;
3217;SDS011;1621;49.702;8.618;2024-02-26T01:38:28;3.13;;;1.13;;
3217;SDS011;1621;49.702;8.618;2024-02-26T01:40:54;2.70;;;1.60;;
3217;SDS011;1621;49.702;8.618;2024-02-26T01:43:21;2.87;;;1.30;;
3217;SDS011;1621;49.702;8.618;2024-02-26T01:45:48;2.70;;;1.40;;
3217;SDS011;1621;49.702;8.618;2024-02-26T01:48:14;3.17;;;1.50;;
3217;SDS011;1621;49.702;8.618;2024-02-26T01:50:41;5.83;;;1.40;;
3217;SDS011;1621;49.702;8.618;2024-02-26T01:53:07;2.97;;;1.40;;
3217;SDS011;1621;49.702;8.618;2024-02-26T01:55:34;2.87;;;1.50;;
3217;SDS011;1621;49.702;8.618;2024-02-26T01:58:00;3.03;;;1.43;;
3217;SDS011;1621;49.702;8.618;2024-02-26T02:00:26;3.70;;;1.50;;
3217;SDS011;1621;49.702;8.618;2024-02-26T02:02:54;2.40;;;1.27;;
3217;SDS011;1621;49.702;8.618;2024-02-26T02:05:21;3.43;;;1.60;;
3217;SDS011;1621;49.702;8.618;2024-02-26T02:07:47;2.63;;;1.30;;
3217;SDS011;1621;49.702;8.618;2024-02-26T02:10:14;3.33;;;1.50;;
3217;SDS011;1621;49.702;8.618;2024-02-26T02:12:41;2.80;;;1.60;;
3217;SDS011;1621;49.702;8.618;2024-02-26T02:15:07;2.77;;;1.50;;
3217;SDS011;1621;49.702;8.618;2024-02-26T02:17:33;2.70;;;1.40;;
3217;SDS011;1621;49.702;8.618;2024-02-26T02:20:01;3.17;;;1.60;;
3217;SDS011;1621;49.702;8.618;2024-02-26T02:22:29;2.77;;;1.43;;
3217;SDS011;1621;49.702;8.618;2024-02-26T02:24:57;2.90;;;1.33;;
3217;SDS011;1621;49.702;8.618;2024-02-26T02:27:23;2.67;;;1.30;;
3217;SDS011;1621;49.702;8.618;2024-02-26T02:29:50;2.73;;;1.33;;
3217;SDS011;1621;49.702;8.618;2024-02-26T02:32:16;4.67;;;1.50;;
3217;SDS011;1621;49.702;8.618;2024-02-26T02:34:43;2.97;;;1.33;;
3217;SDS011;1621;49.702;8.618;2024-02-26T02:37:09;3.50;;;1.70;;
3217;SDS011;1621;49.702;8.618;2024-02-26T02:39:37;3.43;;;1.80;;
3217;SDS011;1621;49.702;8.618;2024-02-26T02:42:03;3.13;;;1.83;;
3217;SDS011;1621;49.702;8.618;2024-02-26T02:44:29;3.03;;;1.63;;
3217;SDS011;1621;49.702;8.618;2024-02-26T02:46:55;3.83;;;1.70;;
3217;SDS011;1621;49.702;8.618;2024-02-26T02:49:21;4.13;;;2.37;;
3217;SDS011;1621;49.702;8.618;2024-02-26T02:51:48;4.80;;;2.33;;
3217;SDS011;1621;49.702;8.618;2024-02-26T02:54:15;7.63;;;2.17;;
3217;SDS011;1621;49.702;8.618;2024-02-26T02:56:42;3.60;;;2.10;;
3217;SDS011;1621;49.702;8.618;2024-02-26T02:59:08;2.97;;;1.80;;
3217;SDS011;1621;49.702;8.618;2024-02-26T03:01:35;4.00;;;2.33;;
3217;SDS011;1621;49.702;8.618;2024-02-26T03:04:01;3.10;;;1.97;;
3217;SDS011;1621;49.702;8.618;2024-02-26T03:06:27;3.53;;;2.03;;
3217;SDS011;1621;49.702;8.618;2024-02-26T03:08:54;3.97;;;1.90;;
3217;SDS011;1621;49.702;8.618;2024-02-26T03:11:20;3.67;;;1.87;;
3217;SDS011;1621;49.702;8.618;2024-02-26T03:13:48;3.40;;;2.00;;
3217;SDS011;1621;49.702;8.618;2024-02-26T03:16:14;4.60;;;2.60;;
3217;SDS011;1621;49.702;8.618;2024-02-26T03:18:40;4.17;;;2.33;;
3217;SDS011;1621;49.702;8.618;2024-02-26T03:21:07;4.03;;;2.37;;
3217;SDS011;1621;49.702;8.618;2024-02-26T03:23:33;3.80;;;2.20;;
3217;SDS011;1621;49.702;8.618;2024-02-26T03:26:01;4.83;;;2.50;;
3217;SDS011;1621;49.702;8.618;2024-02-26T03:28:27;4.70;;;2.20;;
3217;SDS011;1621;49.702;8.618;2024-02-26T03:30:55;3.90;;;2.30;;
3217;SDS011;1621;49.702;8.618;2024-02-26T03:33:21;3.60;;;1.97;;
3217;SDS011;1621;49.702;8.618;2024-02-26T03:35:48;5.13;;;2.53;;
3217;SDS011;1621;49.702;8.618;2024-02-26T03:38:13;4.37;;;2.37;;
3217;SDS011;1621;49.702;8.618;2024-02-26T03:40:39;6.33;;;2.80;;
3217;SDS011;1621;49.702;8.618;2024-02-26T03:43:05;5.80;;;2.70;;
3217;SDS011;1621;49.702;8.618;2024-02-26T03:45:32;4.60;;;2.60;;
3217;SDS011;1621;49.702;8.618;2024-02-26T03:48:00;6.03;;;3.47;;
3217;SDS011;1621;49.702;8.618;2024-02-26T03:50:26;6.43;;;3.93;;
3217;SDS011;1621;49.702;8.618;2024-02-26T03:52:52;4.70;;;3.00;;
3217;SDS011;1621;49.702;8.618;2024-02-26T03:55:19;4.50;;;2.20;;
3217;SDS011;1621;49.702;8.618;2024-02-26T03:57:49;3.90;;;2.40;;
3217;SDS011;1621;49.702;8.618;2024-02-26T04:00:16;4.40;;;1.90;;
3217;SDS011;1621;49.702;8.618;2024-02-26T04:02:42;5.60;;;2.47;;
3217;SDS011;1621;49.702;8.618;2024-02-26T04:05:10;4.00;;;2.13;;
3217;SDS011;1621;49.702;8.618;2024-02-26T04:07:36;4.07;;;2.30;;
3217;SDS011;1621;49.702;8.618;2024-02-26T04:10:03;3.50;;;1.80;;
3217;SDS011;1621;49.702;8.618;2024-02-26T04:12:30;3.43;;;1.90;;
3217;SDS011;1621;49.702;8.618;2024-02-26T04:14:56;4.63;;;2.50;;
3217;SDS011;1621;49.702;8.618;2024-02-26T04:17:22;3.70;;;2.03;;
3217;SDS011;1621;49.702;8.618;2024-02-26T04:19:49;5.10;;;1.83;;
3217;SDS011;1621;49.702;8.618;2024-02-26T04:22:16;5.57;;;1.90;;
3217;SDS011;1621;49.702;8.618;2024-02-26T04:24:42;3.63;;;1.93;;
3217;SDS011;1621;49.702;8.618;2024-02-26T04:27:09;2.90;;;1.60;;
3217;SDS011;1621;49.702;8.618;2024-02-26T04:29:35;3.77;;;1.80;;
3217;SDS011;1621;49.702;8.618;2024-02-26T04:32:01;3.40;;;1.93;;
3217;SDS011;1621;49.702;8.618;2024-02-26T04:34:28;4.70;;;1.90;;
3217;SDS011;1621;49.702;8.618;2024-02-26T04:36:55;3.33;;;1.73;;
3217;SDS011;1621;49.702;8.618;2024-02-26T04:39:22;3.30;;;1.80;;
3217;SDS011;1621;49.702;8.618;2024-02-26T04:41:48;2.97;;;1.70;;
3217;SDS011;1621;49.702;8.618;2024-02-26T04:44:15;3.80;;;1.60;;
3217;SDS011;1621;49.702;8.618;2024-02-26T04:46:41;3.13;;;1.43;;
3217;SDS011;1621;49.702;8.618;2024-02-26T04:49:07;3.07;;;1.60;;
3217;SDS011;1621;49.702;8.618;2024-02-26T04:51:33;3.17;;;1.50;;
3217;SDS011;1621;49.702;8.618;2024-02-26T04:54:00;3.07;;;1.37;;
3217;SDS011;1621;49.702;8.618;2024-02-26T04:56:27;3.03;;;1.33;;
3217;SDS011;1621;49.702;8.618;2024-02-26T04:58:53;3.47;;;1.13;;
3217;SDS011;1621;49.702;8.618;2024-02-26T05:01:20;2.63;;;1.30;;
3217;SDS011;1621;49.702;8.618;2024-02-26T05:03:46;3.43;;;1.53;;
3217;SDS011;1621;49.702;8.618;2024-02-26T05:06:12;2.70;;;1.30;;
3217;SDS011;1621;49.702;8.618;2024-02-26T05:08:39;2.97;;;1.20;;
3217;SDS011;1621;49.702;8.618;2024-02-26T05:11:05;2.27;;;1.10;;
3217;SDS011;1621;49.702;8.618;2024-02-26T05:13:32;3.20;;;1.57;;
3217;SDS011;1621;49.702;8.618;2024-02-26T05:15:59;2.50;;;1.10;;
3217;SDS011;1621;49.702;8.618;2024-02-26T05:18:25;2.67;;;1.03;;
3217;SDS011;1621;49.702;8.618;2024-02-26T05:20:51;3.10;;;1.30;;
3217;SDS011;1621;49.702;8.618;2024-02-26T05:23:17;2.80;;;1.10;;
3217;SDS011;1621;49.702;8.618;2024-02-26T05:25:44;4.13;;;1.30;;
3217;SDS011;1621;49.702;8.618;2024-02-26T05:28:12;2.20;;;0.90;;
3217;SDS011;1621;49.702;8.618;2024-02-26T05:30:41;2.80;;;1.20;;
3217;SDS011;1621;49.702;8.618;2024-02-26T05:33:08;2.10;;;0.80;;
3217;SDS011;1621;49.702;8.618;2024-02-26T05:35:34;3.40;;;1.00;;
3217;SDS011;1621;49.702;8.618;2024-02-26T05:38:00;2.20;;;0.90;;
3217;SDS011;1621;49.702;8.618;2024-02-26T05:40:26;2.70;;;1.20;;
3217;SDS011;1621;49.702;8.618;2024-02-26T05:42:53;2.30;;;0.90;;
3217;SDS011;1621;49.702;8.618;2024-02-26T05:45:19;2.40;;;1.00;;
3217;SDS011;1621;49.702;8.618;2024-02-26T05:47:47;2.10;;;0.90;;
3217;SDS011;1621;49.702;8.618;2024-02-26T05:50:14;2.07;;;0.80;;
3217;SDS011;1621;49.702;8.618;2024-02-26T05:52:41;2.50;;;1.00;;
3217;SDS011;1621;49.702;8.618;2024-02-26T05:55:07;2.70;;;1.20;;
3217;SDS011;1621;49.702;8.618;2024-02-26T05:57:34;2.70;;;0.90;;
3217;SDS011;1621;49.702;8.618;2024-02-26T06:00:00;2.90;;;1.00;;
3217;SDS011;1621;49.702;8.618;2024-02-26T06:02:28;2.50;;;1.00;;
3217;SDS011;1621;49.702;8.618;2024-02-26T06:04:56;2.10;;;0.83;;
3217;SDS011;1621;49.702;8.618;2024-02-26T06:07:22;2.30;;;0.90;;
3217;SDS011;1621;49.702;8.618;2024-02-26T06:09:49;3.03;;;1.03;;
3217;SDS011;1621;49.702;8.618;2024-02-26T06:12:15;3.20;;;0.90;;
3217;SDS011;1621;49.702;8.618;2024-02-26T06:14:41;3.20;;;1.00;;
3217;SDS011;1621;49.702;8.618;2024-02-26T06:17:08;2.50;;;0.90;;
3217;SDS011;1621;49.702;8.618;2024-02-26T06:19:34;2.30;;;0.93;;
3217;SDS011;1621;49.702;8.618;2024-02-26T06:22:01;2.13;;;0.90;;
3217;SDS011;1621;49.702;8.618;2024-02-26T06:24:28;2.17;;;0.87;;
3217;SDS011;1621;49.702;8.618;2024-02-26T06:26:54;3.60;;;1.10;;
3217;SDS011;1621;49.702;8.618;2024-02-26T06:29:20;2.50;;;1.00;;
3217;SDS011;1621;49.702;8.618;2024-02-26T06:31:47;2.63;;;1.10;;
3217;SDS011;1621;49.702;8.618;2024-02-26T06:34:15;2.70;;;1.00;;
3217;SDS011;1621;49.702;8.618;2024-02-26T06:36:42;2.20;;;0.93;;
3217;SDS011;1621;49.702;8.618;2024-02-26T06:39:09;3.60;;;1.30;;
3217;SDS011;1621;49.702;8.618;2024-02-26T06:41:37;2.03;;;0.80;;
3217;SDS011;1621;49.702;8.618;2024-02-26T06:44:04;2.43;;;0.87;;
3217;SDS011;1621;49.702;8.618;2024-02-26T06:46:31;2.60;;;1.20;;
3217;SDS011;1621;49.702;8.618;2024-02-26T06:48:57;2.47;;;0.90;;
3217;SDS011;1621;49.702;8.618;2024-02-26T06:51:23;2.20;;;0.87;;
3217;SDS011;1621;49.702;8.618;2024-02-26T06:53:49;2.53;;;1.10;;
3217;SDS011;1621;49.702;8.618;2024-02-26T06:56:17;2.40;;;1.00;;
3217;SDS011;1621;49.702;8.618;2024-02-26T06:58:43;2.70;;;1.10;;
3217;SDS011;1621;49.702;8.618;2024-02-26T07:01:10;3.13;;;1.17;;
3217;SDS011;1621;49.702;8.618;2024-02-26T07:03:36;2.63;;;1.17;;
3217;SDS011;1621;49.702;8.618;2024-02-26T07:06:02;2.90;;;1.40;;
3217;SDS011;1621;49.702;8.618;2024-02-26T07:08:29;2.20;;;1.03;;
3217;SDS011;1621;49.702;8.618;2024-02-26T07:10:55;2.40;;;1.07;;
3217;SDS011;1621;49.702;8.618;2024-02-26T07:13:22;4.20;;;1.30;;
3217;SDS011;1621;49.702;8.618;2024-02-26T07:15:49;2.30;;;1.00;;
3217;SDS011;1621;49.702;8.618;2024-02-26T07:18:15;2.10;;;0.90;;
3217;SDS011;1621;49.702;8.618;2024-02-26T07:20:41;2.43;;;1.00;;
3217;SDS011;1621;49.702;8.618;2024-02-26T07:23:08;2.70;;;1.20;;
3217;SDS011;1621;49.702;8.618;2024-02-26T07:25:34;2.43;;;1.07;;
3217;SDS011;1621;49.702;8.618;2024-02-26T07:28:01;2.40;;;0.90;;
3217;SDS011;1621;49.702;8.618;2024-02-26T07:30:28;2.67;;;1.17;;
3217;SDS011;1621;49.702;8.618;2024-02-26T07:32:54;2.30;;;1.10;;
3217;SDS011;1621;49.702;8.618;2024-02-26T07:35:21;2.40;;;1.10;;
3217;SDS011;1621;49.702;8.618;2024-02-26T07:37:48;2.40;;;1.00;;
3217;SDS011;1621;49.702;8.618;2024-02-26T07:40:14;2.63;;;1.17;;
3217;SDS011;1621;49.702;8.618;2024-02-26T07:42:41;2.20;;;1.00;;
3217;SDS011;1621;49.702;8.618;2024-02-26T07:45:07;2.40;;;0.90;;
3217;SDS011;1621;49.702;8.618;2024-02-26T07:47:35;2.50;;;1.00;;
3217;SDS011;1621;49.702;8.618;2024-02-26T07:50:03;2.63;;;0.90;;
3217;SDS011;1621;49.702;8.618;2024-02-26T07:52:29;2.93;;;1.10;;
3217;SDS011;1621;49.702;8.618;2024-02-26T07:54:55;2.83;;;1.10;;
3217;SDS011;1621;49.702;8.618;2024-02-26T07:57:22;3.47;;;1.13;;
3217;SDS011;1621;49.702;8.618;2024-02-26T07:59:48;2.50;;;1.20;;
3217;SDS011;1621;49.702;8.618;2024-02-26T08:02:14;2.50;;;1.10;;
3217;SDS011;1621;49.702;8.618;2024-02-26T08:04:42;2.63;;;1.03;;
3217;SDS011;1621;49.702;8.618;2024-02-26T08:07:08;2.53;;;1.00;;
3217;SDS011;1621;49.702;8.618;2024-02-26T08:09:34;2.30;;;1.00;;
3217;SDS011;1621;49.702;8.618;2024-02-26T08:12:01;2.20;;;0.90;;
3217;SDS011;1621;49.702;8.618;2024-02-26T08:14:27;2.30;;;0.90;;
3217;SDS011;1621;49.702;8.618;2024-02-26T08:16:53;3.23;;;1.47;;
3217;SDS011;1621;49.702;8.618;2024-02-26T08:19:19;2.40;;;1.10;;
3217;SDS011;1621;49.702;8.618;2024-02-26T08:21:47;2.27;;;0.80;;
3217;SDS011;1621;49.702;8.618;2024-02-26T08:24:13;2.37;;;0.90;;
3217;SDS011;1621;49.702;8.618;2024-02-26T08:26:39;2.40;;;1.00;;
3217;SDS011;1621;49.702;8.618;2024-02-26T08:29:06;2.40;;;1.00;;
3217;SDS011;1621;49.702;8.618;2024-02-26T08:31:32;2.50;;;1.27;;
3217;SDS011;1621;49.702;8.618;2024-02-26T08:34:00;2.77;;;1.20;;
3217;SDS011;1621;49.702;8.618;2024-02-26T08:36:26;2.60;;;1.30;;
3217;SDS011;1621;49.702;8.618;2024-02-26T08:38:54;4.57;;;1.80;;
3217;SDS011;1621;49.702;8.618;2024-02-26T08:41:20;2.90;;;1.30;;
3217;SDS011;1621;49.702;8.618;2024-02-26T08:43:47;4.30;;;2.00;;
3217;SDS011;1621;49.702;8.618;2024-02-26T08:46:13;2.73;;;1.40;;
3217;SDS011;1621;49.702;8.618;2024-02-26T08:48:39;2.90;;;1.43;;
3217;SDS011;1621;49.702;8.618;2024-02-26T08:51:06;3.07;;;1.60;;
3217;SDS011;1621;49.702;8.618;2024-02-26T08:53:32;3.63;;;1.60;;
3217;SDS011;1621;49.702;8.618;2024-02-26T08:56:00;3.37;;;1.50;;
3217;SDS011;1621;49.702;8.618;2024-02-26T08:58:27;4.20;;;1.70;;
3217;SDS011;1621;49.702;8.618;2024-02-26T09:00:53;3.10;;;1.67;;
3217;SDS011;1621;49.702;8.618;2024-02-26T09:03:19;4.60;;;1.40;;
3217;SDS011;1621;49.702;8.618;2024-02-26T09:05:45;4.10;;;1.53;;
3217;SDS011;1621;49.702;8.618;2024-02-26T09:08:12;4.40;;;1.70;;
3217;SDS011;1621;49.702;8.618;2024-02-26T09:10:38;2.83;;;1.20;;
3217;SDS011;1621;49.702;8.618;2024-02-26T09:13:06;3.10;;;1.80;;
3217;SDS011;1621;49.702;8.618;2024-02-26T09:15:32;3.40;;;1.47;;
3217;SDS011;1621;49.702;8.618;2024-02-26T09:17:59;2.77;;;1.50;;
3217;SDS011;1621;49.702;8.618;2024-02-26T09:20:25;3.10;;;1.50;;
3217;SDS011;1621;49.702;8.618;2024-02-26T09:22:51;3.10;;;1.40;;
3217;SDS011;1621;49.702;8.618;2024-02-26T09:25:18;6.03;;;1.93;;
3217;SDS011;1621;49.702;8.618;2024-02-26T09:27:46;3.20;;;1.00;;
3217;SDS011;1621;49.702;8.618;2024-02-26T09:30:14;2.70;;;1.47;;
3217;SDS011;1621;49.702;8.618;2024-02-26T09:32:40;2.60;;;1.27;;
3217;SDS011;1621;49.702;8.618;2024-02-26T09:35:06;2.90;;;1.43;;
3217;SDS011;1621;49.702;8.618;2024-02-26T09:37:33;2.97;;;1.40;;
3217;SDS011;1621;49.702;8.618;2024-02-26T09:40:01;19.03;;;1.60;;
3217;SDS011;1621;49.702;8.618;2024-02-26T09:42:28;3.10;;;1.40;;
3217;SDS011;1621;49.702;8.618;2024-02-26T09:44:57;2.70;;;1.20;;
3217;SDS011;1621;49.702;8.618;2024-02-26T09:47:27;2.73;;;1.27;;
3217;SDS011;1621;49.702;8.618;2024-02-26T09:49:54;2.60;;;1.00;;
3217;SDS011;1621;49.702;8.618;2024-02-26T09:52:22;2.20;;;0.90;;
3217;SDS011;1621;49.702;8.618;2024-02-26T09:54:49;3.20;;;1.37;;
3217;SDS011;1621;49.702;8.618;2024-02-26T09:57:16;2.77;;;0.80;;
3217;SDS011;1621;49.702;8.618;2024-02-26T09:59:43;2.50;;;1.10;;
3217;SDS011;1621;49.702;8.618;2024-02-26T10:02:11;3.73;;;1.20;;
3217;SDS011;1621;49.702;8.618;2024-02-26T10:04:39;3.50;;;1.10;;
3217;SDS011;1621;49.702;8.618;2024-02-26T10:07:05;2.30;;;1.00;;
3217;SDS011;1621;49.702;8.618;2024-02-26T10:09:35;2.70;;;1.10;;
3217;SDS011;1621;49.702;8.618;2024-02-26T10:12:01;2.60;;;1.03;;
3217;SDS011;1621;49.702;8.618;2024-02-26T10:14:28;2.67;;;1.13;;
3217;SDS011;1621;49.702;8.618;2024-02-26T10:16:54;2.87;;;1.23;;
3217;SDS011;1621;49.702;8.618;2024-02-26T10:19:26;2.23;;;0.83;;
3217;SDS011;1621;49.702;8.618;2024-02-26T10:21:57;2.43;;;1.20;;
3217;SDS011;1621;49.702;8.618;2024-02-26T10:24:23;2.40;;;1.10;;
3217;SDS011;1621;49.702;8.618;2024-02-26T10:26:50;2.43;;;1.10;;
3217;SDS011;1621;49.702;8.618;2024-02-26T10:29:16;3.10;;;1.10;;
3217;SDS011;1621;49.702;8.618;2024-02-26T10:31:43;2.40;;;1.10;;
3217;SDS011;1621;49.702;8.618;2024-02-26T10:34:10;2.20;;;0.93;;
3217;SDS011;1621;49.702;8.618;2024-02-26T10:36:37;2.20;;;0.90;;
3217;SDS011;1621;49.702;8.618;2024-02-26T10:39:07;2.37;;;1.03;;
3217;SDS011;1621;49.702;8.618;2024-02-26T10:41:33;2.17;;;0.93;;
3217;SDS011;1621;49.702;8.618;2024-02-26T10:44:00;2.33;;;1.00;;
3217;SDS011;1621;49.702;8.618;2024-02-26T10:46:27;2.40;;;0.90;;
3217;SDS011;1621;49.702;8.618;2024-02-26T10:48:53;2.40;;;1.00;;
3217;SDS011;1621;49.702;8.618;2024-02-26T10:51:20;2.80;;;1.10;;
3217;SDS011;1621;49.702;8.618;2024-02-26T10:53:48;2.63;;;1.10;;
3217;SDS011;1621;49.702;8.618;2024-02-26T10:56:19;2.80;;;1.03;;
3217;SDS011;1621;49.702;8.618;2024-02-26T10:58:46;2.70;;;1.33;;
3217;SDS011;1621;49.702;8.618;2024-02-26T11:01:12;3.03;;;1.07;;
3217;SDS011;1621;49.702;8.618;2024-02-26T11:03:39;3.87;;;1.10;;
3217;SDS011;1621;49.702;8.618;2024-02-26T11:06:05;2.40;;;1.10;;
3217;SDS011;1621;49.702;8.618;2024-02-26T11:08:32;2.10;;;0.90;;
3217;SDS011;1621;49.702;8.618;2024-02-26T11:10:59;2.77;;;1.30;;
3217;SDS011;1621;49.702;8.618;2024-02-26T11:13:27;2.20;;;0.90;;
3217;SDS011;1621;49.702;8.618;2024-02-26T11:15:55;2.60;;;1.10;;
3217;SDS011;1621;49.702;8.618;2024-02-26T11:18:22;2.20;;;0.93;;
3217;SDS011;1621;49.702;8.618;2024-02-26T11:20:49;2.30;;;0.87;;
3217;SDS011;1621;49.702;8.618;2024-02-26T11:23:17;5.10;;;1.20;;
3217;SDS011;1621;49.702;8.618;2024-02-26T11:25:43;2.20;;;0.87;;
3217;SDS011;1621;49.702;8.618;2024-02-26T11:28:10;2.90;;;1.10;;
3217;SDS011;1621;49.702;8.618;2024-02-26T11:30:39;2.47;;;1.10;;
3217;SDS011;1621;49.702;8.618;2024-02-26T11:33:06;4.87;;;1.20;;
3217;SDS011;1621;49.702;8.618;2024-02-26T11:35:34;2.30;;;0.90;;
3217;SDS011;1621;49.702;8.618;2024-02-26T11:38:00;2.20;;;0.80;;
3217;SDS011;1621;49.702;8.618;2024-02-26T11:40:26;2.30;;;1.00;;
3217;SDS011;1621;49.702;8.618;2024-02-26T11:42:53;2.17;;;0.90;;
3217;SDS011;1621;49.702;8.618;2024-02-26T11:48:05;2.40;;;1.00;;
3217;SDS011;1621;49.702;8.618;2024-02-26T11:50:38;2.10;;;0.80;;
3217;SDS011;1621;49.702;8.618;2024-02-26T11:53:20;2.30;;;1.00;;
3217;SDS011;1621;49.702;8.618;2024-02-26T11:55:47;2.67;;;0.90;;
3217;SDS011;1621;49.702;8.618;2024-02-26T11:58:13;2.00;;;0.80;;
3217;SDS011;1621;49.702;8.618;2024-02-26T12:00:40;2.33;;;0.87;;
3217;SDS011;1621;49.702;8.618;2024-02-26T12:03:07;2.27;;;0.87;;
3217;SDS011;1621;49.702;8.618;2024-02-26T12:05:36;2.40;;;0.90;;
3217;SDS011;1621;49.702;8.618;2024-02-26T12:08:04;3.93;;;1.17;;
3217;SDS011;1621;49.702;8.618;2024-02-26T12:10:32;2.60;;;1.00;;
3217;SDS011;1621;49.702;8.618;2024-02-26T12:13:02;2.30;;;0.80;;
3217;SDS011;1621;49.702;8.618;2024-02-26T12:15:32;2.63;;;0.90;;
3217;SDS011;1621;49.702;8.618;2024-02-26T12:18:00;2.80;;;1.10;;
3217;SDS011;1621;49.702;8.618;2024-02-26T12:20:28;2.60;;;1.17;;
3217;SDS011;1621;49.702;8.618;2024-02-26T12:22:54;2.40;;;0.93;;
3217;SDS011;1621;49.702;8.618;2024-02-26T12:25:22;2.30;;;1.00;;
3217;SDS011;1621;49.702;8.618;2024-02-26T12:27:49;2.30;;;0.80;;
3217;SDS011;1621;49.702;8.618;2024-02-26T12:30:16;2.90;;;0.93;;
3217;SDS011;1621;49.702;8.618;2024-02-26T12:32:42;2.63;;;0.80;;
3217;SDS011;1621;49.702;8.618;2024-02-26T12:35:09;2.80;;;1.10;;
3217;SDS011;1621;49.702;8.618;2024-02-26T12:37:37;2.27;;;0.80;;
3217;SDS011;1621;49.702;8.618;2024-02-26T12:40:04;2.37;;;0.80;;
3217;SDS011;1621;49.702;8.618;2024-02-26T12:42:32;2.17;;;0.80;;
3217;SDS011;1621;49.702;8.618;2024-02-26T12:45:04;2.17;;;0.80;;
3217;SDS011;1621;49.702;8.618;2024-02-26T12:47:34;2.53;;;1.10;;
3217;SDS011;1621;49.702;8.618;2024-02-26T12:50:00;2.30;;;0.80;;
3217;SDS011;1621;49.702;8.618;2024-02-26T12:52:29;7.70;;;1.10;;
3217;SDS011;1621;49.702;8.618;2024-02-26T12:54:56;2.20;;;0.80;;
3217;SDS011;1621;49.702;8.618;2024-02-26T12:57:23;2.40;;;0.87;;
3217;SDS011;1621;49.702;8.618;2024-02-26T12:59:49;2.43;;;0.80;;
3217;SDS011;1621;49.702;8.618;2024-02-26T13:02:16;2.23;;;0.90;;
3217;SDS011;1621;49.702;8.618;2024-02-26T13:04:42;2.33;;;0.90;;
3217;SDS011;1621;49.702;8.618;2024-02-26T13:07:09;3.87;;;0.80;;
3217;SDS011;1621;49.702;8.618;2024-02-26T13:09:35;2.20;;;0.80;;
3217;SDS011;1621;49.702;8.618;2024-02-26T13:12:05;2.30;;;0.90;;
3217;SDS011;1621;49.702;8.618;2024-02-26T13:14:31;2.27;;;0.90;;
3217;SDS011;1621;49.702;8.618;2024-02-26T13:16:59;4.00;;;1.10;;
3217;SDS011;1621;49.702;8.618;2024-02-26T13:19:25;2.17;;;0.77;;
3217;SDS011;1621;49.702;8.618;2024-02-26T13:21:52;2.53;;;0.90;;
3217;SDS011;1621;49.702;8.618;2024-02-26T13:24:19;3.20;;;1.60;;
3217;SDS011;1621;49.702;8.618;2024-02-26T13:26:45;4.40;;;1.03;;
3217;SDS011;1621;49.702;8.618;2024-02-26T13:29:17;4.33;;;1.13;;
3217;SDS011;1621;49.702;8.618;2024-02-26T13:31:44;2.37;;;0.90;;
3217;SDS011;1621;49.702;8.618;2024-02-26T13:34:11;2.40;;;0.80;;
3217;SDS011;1621;49.702;8.618;2024-02-26T13:36:38;3.03;;;1.30;;
3217;SDS011;1621;49.702;8.618;2024-02-26T13:39:04;4.33;;;1.20;;
3217;SDS011;1621;49.702;8.618;2024-02-26T13:41:30;4.93;;;1.30;;
3217;SDS011;1621;49.702;8.618;2024-02-26T13:43:57;2.37;;;1.10;;
3217;SDS011;1621;49.702;8.618;2024-02-26T13:46:25;3.33;;;1.10;;
3217;SDS011;1621;49.702;8.618;2024-02-26T13:48:51;2.87;;;1.10;;
3217;SDS011;1621;49.702;8.618;2024-02-26T13:51:19;5.13;;;0.90;;
3217;SDS011;1621;49.702;8.618;2024-02-26T13:53:46;2.70;;;1.00;;
3217;SDS011;1621;49.702;8.618;2024-02-26T13:56:12;2.63;;;1.30;;
3217;SDS011;1621;49.702;8.618;2024-02-26T13:58:38;5.43;;;1.07;;
3217;SDS011;1621;49.702;8.618;2024-02-26T14:01:04;2.43;;;0.93;;
3217;SDS011;1621;49.702;8.618;2024-02-26T14:03:32;3.23;;;1.30;;
3217;SDS011;1621;49.702;8.618;2024-02-26T14:05:58;2.47;;;1.10;;
3217;SDS011;1621;49.702;8.618;2024-02-26T14:08:25;3.23;;;1.40;;
3217;SDS011;1621;49.702;8.618;2024-02-26T14:10:51;3.10;;;1.50;;
3217;SDS011;1621;49.702;8.618;2024-02-26T14:13:17;3.00;;;1.43;;
3217;SDS011;1621;49.702;8.618;2024-02-26T14:15:43;3.20;;;1.53;;
3217;SDS011;1621;49.702;8.618;2024-02-26T14:18:10;3.00;;;1.40;;
3217;SDS011;1621;49.702;8.618;2024-02-26T14:20:37;3.43;;;1.73;;
3217;SDS011;1621;49.702;8.618;2024-02-26T14:23:05;3.97;;;1.90;;
3217;SDS011;1621;49.702;8.618;2024-02-26T14:25:31;3.27;;;1.90;;
3217;SDS011;1621;49.702;8.618;2024-02-26T14:27:58;3.90;;;2.10;;
3217;SDS011;1621;49.702;8.618;2024-02-26T14:30:25;4.67;;;1.90;;
3217;SDS011;1621;49.702;8.618;2024-02-26T14:32:51;3.63;;;2.20;;
3217;SDS011;1621;49.702;8.618;2024-02-26T14:35:17;4.60;;;2.30;;
3217;SDS011;1621;49.702;8.618;2024-02-26T14:37:45;3.63;;;2.10;;
3217;SDS011;1621;49.702;8.618;2024-02-26T14:40:13;4.10;;;2.30;;
3217;SDS011;1621;49.702;8.618;2024-02-26T14:42:39;4.40;;;2.30;;
3217;SDS011;1621;49.702;8.618;2024-02-26T14:45:05;4.03;;;2.27;;
3217;SDS011;1621;49.702;8.618;2024-02-26T14:47:33;3.87;;;2.30;;
3217;SDS011;1621;49.702;8.618;2024-02-26T14:50:00;4.67;;;2.53;;
3217;SDS011;1621;49.702;8.618;2024-02-26T14:52:26;3.80;;;2.03;;
3217;SDS011;1621;49.702;8.618;2024-02-26T14:54:54;3.30;;;1.77;;
3217;SDS011;1621;49.702;8.618;2024-02-26T14:57:20;3.97;;;2.27;;
3217;SDS011;1621;49.702;8.618;2024-02-26T14:59:46;4.37;;;2.73;;
3217;SDS011;1621;49.702;8.618;2024-02-26T15:02:13;5.73;;;2.47;;
3217;SDS011;1621;49.702;8.618;2024-02-26T15:04:40;5.20;;;3.00;;
3217;SDS011;1621;49.702;8.618;2024-02-26T15:07:06;5.27;;;2.53;;
3217;SDS011;1621;49.702;8.618;2024-02-26T15:09:32;6.63;;;3.50;;
3217;SDS011;1621;49.702;8.618;2024-02-26T15:12:00;7.30;;;2.60;;
3217;SDS011;1621;49.702;8.618;2024-02-26T15:14:27;5.60;;;2.60;;